Oskaloosa, IA

8:36 PM CST on November 21, 2017 (GMT -0600)
Oskaloosa Municipal

Weather History for KOOA - January, 2013

Change the Weather History Date:

Saturday, January 5, 2013

  Actual Average (KOTM) Record (KOTM)
Temperature  
Mean Temperature 32 °F -  
Max Temperature 41 °F 29 °F 65 °F (2012)
Min Temperature 24 °F 12 °F -20 °F (1924)
Degree Days  
Heating Degree Days 32    
Moisture  
Dew Point 26 °F    
Average Humidity 79    
Maximum Humidity 86    
Minimum Humidity 66    
Precipitation  
Precipitation 0.00 in - - ()
Sea Level Pressure  
Sea Level Pressure 30.07 in    
Wind  
Wind Speed 12 mph (SW)    
Max Wind Speed 23 mph    
Max Gust Speed 30 mph    
Visibility 10 miles    
Events      
Averages and records for this station are not official NWS values.
T = Trace of Precipitation, MM = Missing Value Source: NWS Daily Summary

Daily Weather History Graph

Daily Weather History Graph

Search for Another Location

Airport or City:

Trip Planner

Search our weather history database for the weather conditions in past years. The results will help you decide how hot, cold, wet, or windy it might be!

Date:

Astronomy

Jan. 05, 2013 Rise Set
Actual Time 7:35 AM CST 4:55 PM CST
Civil Twilight 7:04 AM CST 5:26 PM CST
Nautical Twilight 6:30 AM CST 6:01 PM CST
Astronomical Twilight 5:56 AM CST 6:34 PM CST
Moon 12:40 AM CST (1/5) 11:47 AM CST (1/5)
Length of Visible Light 10h 21m
Length of Day
9h 19m
Last Quarter, 44% of the Moon is Illuminated
Jan 5
Last Quarter
Jan 11
New
Jan 18
First Quarter
Jan 26
Full
Feb 3
Last Quarter

Hourly Weather History & Observations

Time (CST) Temp. Windchill Dew Point Humidity Pressure Visibility Wind Dir Wind Speed Gust Speed Precip Events Conditions
12:15 AM 25.5 °F 16.9 °F 20.7 °F 82% 30.19 in 10.0 mi SSW 8.1 mph - N/A   Clear
12:35 AM 26.8 °F 21.4 °F 21.7 °F 81% 30.18 in 10.0 mi SSW 4.6 mph - N/A   Clear
12:55 AM 26.2 °F 16.4 °F 22.1 °F 84% 30.17 in 10.0 mi SSW 10.4 mph - N/A   Clear
1:15 AM 27.7 °F 19.6 °F 22.6 °F 81% 30.17 in 10.0 mi SSW 8.1 mph - N/A   Clear
1:35 AM 26.8 °F 20.2 °F 22.1 °F 83% 30.17 in 10.0 mi SSW 5.8 mph - N/A   Clear
1:55 AM 27.5 °F 22.2 °F 22.8 °F 83% 30.17 in 10.0 mi SSW 4.6 mph - N/A   Clear
2:15 AM 27.5 °F 22.2 °F 22.8 °F 83% 30.17 in 10.0 mi SSW 4.6 mph - N/A   Clear
2:35 AM 26.8 °F 19.3 °F 22.1 °F 83% 30.17 in 10.0 mi SSW 6.9 mph - N/A   Clear
2:55 AM 25.3 °F 15.3 °F 21.2 °F 84% 30.17 in 10.0 mi SSW 10.4 mph - N/A   Clear
3:15 AM 27.0 °F 17.3 °F 23.0 °F 85% 30.16 in 10.0 mi SSW 10.4 mph - N/A   Clear
3:35 AM 25.5 °F 16.2 °F 21.2 °F 84% 30.16 in 10.0 mi SSW 9.2 mph - N/A   Clear
3:55 AM 25.7 °F 16.4 °F 21.7 °F 85% 30.16 in 10.0 mi SSW 9.2 mph - N/A   Clear
4:15 AM 25.7 °F 16.4 °F 21.6 °F 84% 30.15 in 10.0 mi SSW 9.2 mph - N/A   Clear
4:35 AM 26.4 °F 18.0 °F 22.1 °F 84% 30.14 in 10.0 mi SSW 8.1 mph - N/A   Clear
4:55 AM 27.3 °F 19.1 °F 22.6 °F 83% 30.13 in 10.0 mi South 8.1 mph - N/A   Clear
5:15 AM 24.4 °F 15.6 °F 20.7 °F 86% 30.12 in 10.0 mi SSW 8.1 mph - N/A   Clear
5:35 AM 25.9 °F 16.0 °F 22.1 °F 86% 30.12 in 10.0 mi SSW 10.4 mph - N/A   Clear
5:55 AM 27.7 °F 18.2 °F 23.2 °F 83% 30.11 in 10.0 mi SSW 10.4 mph - N/A   Clear
6:15 AM 28.0 °F 20.0 °F 23.2 °F 82% 30.11 in 10.0 mi SSW 8.1 mph - N/A   Clear
6:35 AM 28.9 °F 21.1 °F 23.9 °F 81% 30.11 in 10.0 mi SSW 8.1 mph - N/A   Scattered Clouds
7:15 AM 28.9 °F 18.2 °F 23.9 °F 81% 30.12 in 10.0 mi SSW 13.8 mph - N/A   Clear
7:35 AM 29.3 °F 19.6 °F 23.9 °F 80% 30.12 in 10.0 mi SW 11.5 mph - N/A   Clear
7:55 AM 29.1 °F 18.4 °F 23.9 °F 81% 30.13 in 10.0 mi SSW 13.8 mph - N/A   Clear
8:15 AM 29.8 °F 20.3 °F 24.3 °F 80% 30.12 in 10.0 mi SSW 11.5 mph - N/A   Clear
8:35 AM 30.0 °F 20.0 °F 24.8 °F 81% 30.12 in 10.0 mi SSW 12.7 mph - N/A   Clear
8:55 AM 31.6 °F 22.6 °F 26.2 °F 80% 30.13 in 10.0 mi SSW 11.5 mph - N/A   Clear
9:15 AM 32.9 °F 24.7 °F 27.0 °F 79% 30.13 in 10.0 mi SW 10.4 mph - N/A   Mostly Cloudy
9:55 AM 33.8 °F 25.3 °F 27.5 °F 78% 30.13 in 10.0 mi SSW 11.5 mph - N/A   Overcast
10:15 AM 35.6 °F 25.9 °F 28.4 °F 75% 30.12 in 10.0 mi SSW 16.1 mph - N/A   Overcast
10:55 AM 37.4 °F 28.9 °F 29.3 °F 73% 30.11 in 10.0 mi SSW 13.8 mph - N/A   Overcast
11:15 AM 39.6 °F 31.3 °F 30.2 °F 69% 30.09 in 10.0 mi SSW 15.0 mph - N/A   Mostly Cloudy
11:55 AM 41.9 °F 32.3 °F 31.1 °F 66% 30.05 in 10.0 mi SW 23.0 mph 27.6 mph N/A   Scattered Clouds
12:15 PM 41.7 °F 32.9 °F 31.3 °F 66% 30.04 in 10.0 mi SW 19.6 mph 26.5 mph N/A   Mostly Cloudy
12:35 PM 41.7 °F 32.3 °F 30.9 °F 66% 30.02 in 10.0 mi SW 21.9 mph 27.6 mph N/A   Overcast
12:55 PM 40.6 °F 30.7 °F 31.1 °F 69% 30.01 in 10.0 mi SW 23.0 mph 28.8 mph N/A   Overcast
1:15 PM 40.6 °F 31.7 °F 31.6 °F 70% 30.00 in 10.0 mi SW 18.4 mph 27.6 mph N/A   Overcast
1:35 PM 40.1 °F 30.7 °F 31.6 °F 72% 29.99 in 10.0 mi SW 19.6 mph 25.3 mph N/A   Overcast
1:55 PM 39.7 °F 30.3 °F 31.6 °F 73% 29.99 in 10.0 mi SW 19.6 mph - N/A   Overcast
2:15 PM 38.8 °F 29.1 °F 31.5 °F 75% 29.98 in 10.0 mi SW 19.6 mph 25.3 mph N/A   Overcast
2:35 PM 39.2 °F 30.5 °F 31.8 °F 75% 29.97 in 10.0 mi SW 16.1 mph - N/A   Overcast
2:55 PM 38.8 °F 29.4 °F 31.8 °F 76% 29.98 in 10.0 mi SW 18.4 mph - N/A   Overcast
3:15 PM 38.5 °F 29.6 °F 32.0 °F 78% 29.98 in 10.0 mi SW 16.1 mph - N/A   Overcast
3:35 PM 38.5 °F 30.3 °F 32.0 °F 78% 29.99 in 10.0 mi SW 13.8 mph - N/A   Overcast
3:55 PM 38.1 °F 29.8 °F 32.0 °F 79% 29.99 in 10.0 mi SW 13.8 mph - N/A   Overcast
4:15 PM 37.9 °F 30.0 °F 32.0 °F 79% 29.98 in 10.0 mi SW 12.7 mph - N/A   Overcast
5:15 PM 36.3 °F 28.0 °F 31.3 °F 82% 29.98 in 10.0 mi SSW 12.7 mph - N/A   Mostly Cloudy
5:35 PM 36.1 °F 28.2 °F 31.5 °F 83% 29.98 in 10.0 mi SSW 11.5 mph - N/A   Overcast
5:55 PM 36.1 °F 28.2 °F 31.6 °F 84% 29.98 in 10.0 mi SW 11.5 mph - N/A   Overcast
6:15 PM 36.3 °F 27.5 °F 31.8 °F 84% 29.98 in 10.0 mi SW 13.8 mph - N/A   Overcast
6:35 PM 36.5 °F 28.7 °F 31.8 °F 83% 29.99 in 10.0 mi SW 11.5 mph - N/A   Overcast
6:55 PM 36.5 °F 28.2 °F 31.6 °F 83% 29.99 in 10.0 mi SW 12.7 mph - N/A   Overcast
7:15 PM 36.5 °F 27.4 °F 31.6 °F 83% 29.99 in 10.0 mi WSW 15.0 mph - N/A   Overcast
7:35 PM 37.4 °F 28.5 °F 31.3 °F 79% 30.00 in 10.0 mi West 15.0 mph 20.7 mph N/A   Overcast
7:55 PM 35.8 °F 24.8 °F 28.8 °F 76% 30.01 in 10.0 mi West 20.7 mph 25.3 mph N/A   Mostly Cloudy
8:15 PM 33.3 °F 22.1 °F 26.6 °F 77% 30.02 in 10.0 mi WNW 18.4 mph - N/A   Scattered Clouds
8:35 PM 31.8 °F 20.6 °F 25.7 °F 78% 30.03 in 10.0 mi WNW 17.3 mph 21.9 mph N/A   Scattered Clouds
8:55 PM 30.9 °F 18.1 °F 23.5 °F 74% 30.04 in 10.0 mi WNW 21.9 mph 26.5 mph N/A   Scattered Clouds
9:15 PM 30.0 °F 17.5 °F 22.5 °F 73% 30.04 in 10.0 mi WNW 19.6 mph 26.5 mph N/A   Scattered Clouds
9:35 PM 29.5 °F 16.8 °F 22.1 °F 74% 30.04 in 10.0 mi WNW 19.6 mph 25.3 mph N/A   Clear
9:55 PM 28.9 °F 16.1 °F 21.9 °F 75% 30.04 in 10.0 mi NW 19.6 mph 25.3 mph N/A   Clear
10:15 PM 28.4 °F 15.8 °F 21.9 °F 77% 30.04 in 10.0 mi WNW 18.4 mph - N/A   Scattered Clouds
10:35 PM 29.3 °F 16.6 °F 22.1 °F 75% 30.04 in 10.0 mi NW 19.6 mph 27.6 mph N/A   Overcast
10:55 PM 29.7 °F 17.1 °F 21.9 °F 73% 30.05 in 10.0 mi NW 19.6 mph 29.9 mph N/A   Overcast
11:15 PM 29.3 °F 16.6 °F 21.9 °F 74% 30.05 in 10.0 mi NW 19.6 mph 26.5 mph N/A   Overcast
11:35 PM 29.3 °F 17.0 °F 22.6 °F 76% 30.05 in 10.0 mi WNW 18.4 mph 24.2 mph N/A   Overcast
11:55 PM 28.9 °F 15.8 °F 21.9 °F 75% 30.05 in 10.0 mi WNW 20.7 mph 27.6 mph N/A   Overcast